Airfield :
LOGIN :

Register | Disclaimer

   EN    FR    IT 

 










Legend :    VFR   Marginal VFR   IFR   Intensive IFR   Very Intensive IFR
Visi :
Ceiling :
>= 8 km
>= 3000ft
5 to 8 km
1000 to 3000 ft
1500m to 5 km
500 to 1000 ft
800 to 1500m
200 to 500 ft
< 800m
< 200 ft
Symbols :   Thunderstorms  Fog  Heavy snow  Heavy precipitations  Wind > 20 kt
SIGMETs :     Misc.  Thunderstorms  Icing  Turbulence  Mountain Waves  Volcanic Ashes






- Airport Elevation : 794 ft


LKCV - Čáslav Air Base

CURRENT METAR :
  • 091430Z 30007KT CAVOK 21/01 Q1021 NOSIG RMK BLU BLU

EXPIRED METARs :
  • 091400Z 31007KT 270V340 CAVOK 21/M01 Q1021 NOSIG RMK BLU BLU
  • 091330Z 29008KT 250V320 CAVOK 21/M02 Q1021 NOSIG RMK BLU BLU
  • 091300Z 29008KT 260V330 CAVOK 21/M01 Q1021 NOSIG RMK BLU BLU
  • 091230Z 32007KT 280V010 CAVOK 20/M01 Q1022 NOSIG RMK BLU BLU
  • 091200Z 32006KT 290V360 CAVOK 20/M01 Q1022 NOSIG RMK BLU BLU

TAF TAF LKCV
Valid from the 09 at 12:00 until the 10 at 12:00 UTC


091100Z 0912/1012 32008KT CAVOK
TEMPO 0915/0920 35014KT
BECMG 0922/1000 29004KT
BECMG 1008/1011 35006KT



MET'MAP, your aeronautical weather chart ! - Copyright ORBIFLY December 2007 - Disclaimer

ORBIFLY MET'MAP TEAM :

Programming & Development : Alexandra Zaïnal
Concept & original design : Baudouin d'Aumeries
Assistance for programming : Marc-Olivier Méhu
Technical & hardware support : Manuel Goepfert

Contact : metmap@orbifly.com




SOURCES & CREDITS :

   NOAA